N3044K KAVX-KAJO
Flight info
| Callsign | N3044K |
|---|---|
| Flight time | N/A |
| Altitude | VFR |
| Route | +FF |
| Aircraft | PA24/L-SDGRY/S |
Departure
| Time | N/A |
|---|---|
| Airport | Catalina Airport (KAVX) |
Arrival
| Time | 2026-04-12 18:07 |
|---|---|
| Airport | Corona Municipal Airport (KAJO) |
| Time | Latitude | Longitude | Altitude | Speed | Heading |
|---|---|---|---|---|---|
| 2026-04-12 17:59 | 33.76108 | -117.81689 | 1070 ft | 130 kts | 205° |
| 2026-04-12 17:59 | 33.75268 | -117.81520 | 923 ft | 129 kts | 141° |
| 2026-04-12 17:59 | 33.74946 | -117.80589 | 874 ft | 116 kts | 83° |
| 2026-04-12 17:59 | 33.75170 | -117.79767 | 1011 ft | 96 kts | 65° |
| 2026-04-12 18:00 | 33.75444 | -117.79075 | 1032 ft | 92 kts | 62° |
| 2026-04-12 18:00 | 33.75774 | -117.78363 | 1059 ft | 107 kts | 57° |
| 2026-04-12 18:00 | 33.76227 | -117.77587 | 1051 ft | 117 kts | 52° |
| 2026-04-12 18:00 | 33.76751 | -117.76848 | 1157 ft | 118 kts | 46° |
| 2026-04-12 18:01 | 33.77349 | -117.76110 | 1115 ft | 128 kts | 43° |
| 2026-04-12 18:01 | 33.77990 | -117.75347 | 1153 ft | 130 kts | 47° |
| 2026-04-12 18:01 | 33.78630 | -117.74575 | 1171 ft | 134 kts | 44° |
| 2026-04-12 18:01 | 33.79201 | -117.73692 | 1206 ft | 134 kts | 71° |
| 2026-04-12 18:02 | 33.79283 | -117.72574 | 1228 ft | 134 kts | 85° |
| 2026-04-12 18:02 | 33.79437 | -117.71481 | 1403 ft | 129 kts | 77° |
| 2026-04-12 18:02 | 33.79789 | -117.70496 | 1496 ft | 133 kts | 59° |
| 2026-04-12 18:02 | 33.80282 | -117.69567 | 1670 ft | 131 kts | 57° |
| 2026-04-12 18:03 | 33.80886 | -117.68799 | 1834 ft | 127 kts | 36° |
| 2026-04-12 18:03 | 33.81689 | -117.68329 | 1877 ft | 134 kts | 25° |
| 2026-04-12 18:03 | 33.82515 | -117.67880 | 2033 ft | 129 kts | 26° |
| 2026-04-12 18:03 | 33.83298 | -117.67535 | 2315 ft | 115 kts | 14° |
| 2026-04-12 18:04 | 33.84075 | -117.67324 | 2631 ft | 112 kts | 5° |
| 2026-04-12 18:04 | 33.84878 | -117.67181 | 2611 ft | 136 kts | 4° |
| 2026-04-12 18:04 | 33.85791 | -117.66617 | 2505 ft | 155 kts | 49° |
| 2026-04-12 18:04 | 33.86508 | -117.65579 | 2298 ft | 169 kts | 35° |
| 2026-04-12 18:05 | 33.87605 | -117.65243 | 1815 ft | 138 kts | 359° |
| 2026-04-12 18:05 | 33.88326 | -117.65025 | 1878 ft | 121 kts | 17° |
| 2026-04-12 18:05 | 33.88946 | -117.64473 | 1254 ft | 106 kts | 100° |
| 2026-04-12 18:05 | 33.88517 | -117.63752 | 897 ft | 103 kts | 106° |
| 2026-04-12 18:06 | 33.88592 | -117.62962 | 877 ft | 101 kts | 58° |
| 2026-04-12 18:06 | 33.88908 | -117.62224 | 882 ft | 99 kts | 63° |
| 2026-04-12 18:06 | 33.89214 | -117.61537 | 649 ft | 91 kts | 64° |
| 2026-04-12 18:06 | 33.89693 | -117.61072 | 657 ft | 89 kts | 49° |
| 2026-04-12 18:07 | 33.89763 | -117.60349 | 530 ft | 76 kts | 86° |
| 2026-04-12 18:07 | 33.89770 | -117.59938 | 532 ft | 11 kts | 90° |
| 2026-04-12 18:07 | 33.89773 | -117.59847 | 534 ft | 16 kts | 90° |
| 2026-04-12 18:07 | 33.89745 | -117.59755 | 536 ft | 7 kts | 204° |
| 2026-04-12 18:08 | 33.89730 | -117.59814 | 535 ft | 10 kts | 277° |
| 2026-04-12 18:08 | 33.89727 | -117.59927 | 533 ft | 20 kts | 269° |
| 2026-04-12 18:08 | 33.89729 | -117.60053 | 531 ft | 0 kts | 284° |
| 2026-04-12 18:08 | 33.89708 | -117.60118 | 529 ft | 7 kts | 203° |
| 2026-04-12 18:09 | 33.89696 | -117.60120 | 529 ft | 0 kts | 181° |
| 2026-04-12 18:09 | 33.89693 | -117.60120 | 529 ft | 3 kts | 183° |
| 2026-04-12 18:09 | 33.89668 | -117.60106 | 530 ft | 2 kts | 104° |
| 2026-04-12 18:09 | 33.89681 | -117.60077 | 530 ft | 0 kts | 80° |
| 2026-04-12 18:10 | 33.89680 | -117.60055 | 531 ft | 3 kts | 117° |
| 2026-04-12 18:10 | 33.89655 | -117.59999 | 532 ft | 7 kts | 139° |
| 2026-04-12 18:10 | 33.89612 | -117.59994 | 533 ft | 2 kts | 179° |
| 2026-04-12 18:10 | 33.89598 | -117.59988 | 533 ft | 0 kts | 228° |
| 2026-04-12 18:11 | 33.89589 | -117.59996 | 533 ft | 4 kts | 227° |
| 2026-04-12 18:11 | 33.89586 | -117.60001 | 532 ft | 0 kts | 235° |
| 2026-04-12 18:12 | 33.89592 | -117.59993 | 533 ft | 1 kts | 359° |
| 2026-04-12 18:12 | 33.89594 | -117.59992 | 533 ft | 0 kts | 287° |
| 2026-04-12 18:13 | 33.89594 | -117.59991 | 533 ft | 0 kts | 287° |